createdAt,value
2023-03-23T15:58:53.778Z,49.17
2023-03-23T16:01:23.653Z,49.33
2023-03-23T16:04:03.264Z,49.49
2023-03-23T16:06:33.823Z,49.66
2023-03-23T16:09:03.045Z,49.76
2023-03-23T16:11:33.496Z,49.85
2023-03-23T16:14:02.325Z,49.85
2023-03-23T16:16:50.451Z,49.97
2023-03-23T16:19:25.055Z,49.96
2023-03-23T16:21:56.290Z,50.04
2023-03-23T16:24:27.145Z,50.06
2023-03-23T16:27:01.348Z,50.18
2023-03-23T16:32:01.346Z,50.20
2023-03-23T16:34:35.325Z,50.06
2023-03-23T16:37:07.160Z,49.91
2023-03-23T16:39:37.105Z,49.72
2023-03-23T16:42:09.097Z,49.60
2023-03-23T16:44:44.394Z,49.49
2023-03-23T16:47:13.160Z,49.44
2023-03-23T16:49:42.396Z,49.46
2023-03-23T16:52:10.528Z,49.41
2023-03-23T16:54:38.742Z,49.46
2023-03-23T16:57:09.363Z,49.42
2023-03-23T16:59:42.577Z,49.23
2023-03-23T17:02:11.810Z,49.02
2023-03-23T17:04:44.910Z,48.92
2023-03-23T17:07:15.048Z,48.83
2023-03-23T17:09:43.199Z,48.72
2023-03-23T17:12:13.513Z,48.72
2023-03-23T17:14:45.409Z,48.47
2023-03-23T17:17:18.513Z,48.21
2023-03-23T17:19:53.203Z,48.04
2023-03-23T17:22:20.898Z,47.91
2023-03-23T17:24:54.503Z,47.74
2023-03-23T17:27:25.762Z,47.71
2023-03-23T17:29:58.512Z,47.60
2023-03-23T17:32:27.537Z,47.50
2023-03-23T17:35:02.383Z,47.35
2023-03-23T17:37:32.779Z,47.43
2023-03-23T17:40:01.515Z,47.39
2023-03-23T17:42:34.499Z,47.37
2023-03-23T17:45:07.486Z,47.51
2023-03-23T17:47:39.108Z,47.47
2023-03-23T17:50:13.566Z,47.58
2023-03-23T17:52:49.381Z,47.69
2023-03-23T17:55:19.867Z,47.77
2023-03-23T17:57:53.560Z,47.80
2023-03-23T18:00:25.927Z,47.89
2023-03-23T18:02:56.096Z,47.83
2023-03-23T18:05:28.221Z,47.86
2023-03-23T18:07:56.474Z,48.01
2023-03-23T18:10:25.412Z,48.06
2023-03-23T18:12:54.194Z,48.04
2023-03-23T18:15:28.343Z,48.10
2023-03-23T18:18:03.223Z,48.13
2023-03-23T18:20:33.230Z,48.14
2023-03-23T18:23:04.385Z,48.19
2023-03-23T18:25:33.218Z,48.15
2023-03-23T18:28:05.726Z,48.26
2023-03-23T18:30:37.613Z,48.26
2023-03-23T18:33:10.608Z,48.30
2023-03-23T18:35:45.187Z,48.39
2023-03-23T18:38:25.073Z,48.47
2023-03-23T18:40:59.716Z,48.48
2023-03-23T18:43:27.764Z,48.55
2023-03-23T18:45:59.521Z,48.64
2023-03-23T18:48:33.750Z,48.57
2023-03-23T18:51:03.731Z,48.69
2023-03-23T18:53:37.162Z,48.70
2023-03-23T18:56:39.816Z,48.67
2023-03-23T18:59:12.702Z,48.65
2023-03-23T19:02:05.360Z,48.64
2023-03-23T19:04:41.163Z,48.73
2023-03-23T19:07:15.917Z,48.76
2023-03-23T19:09:48.251Z,48.73
2023-03-23T19:12:23.369Z,48.85
2023-03-23T19:14:57.581Z,48.97
2023-03-23T19:17:25.739Z,49.03
2023-03-23T19:20:45.394Z,49.00
2023-03-23T19:23:17.973Z,49.13
2023-03-23T19:25:48.310Z,49.39
2023-03-23T19:29:23.102Z,49.55
2023-03-23T19:31:34.055Z,49.56
2023-03-23T19:34:08.275Z,49.75
2023-03-23T19:36:39.918Z,49.71
2023-03-23T19:39:13.810Z,49.83
2023-03-23T19:41:46.968Z,50.02
2023-03-23T19:44:19.895Z,49.92
2023-03-23T19:46:49.524Z,50.00
2023-03-23T19:49:20.870Z,50.09
2023-03-23T19:51:49.997Z,50.19
2023-03-23T19:54:19.323Z,50.35
2023-03-23T19:56:48.813Z,50.45
2023-03-23T19:59:19.375Z,50.59
2023-03-23T20:01:48.745Z,50.73
2023-03-23T20:04:18.220Z,50.86
2023-03-23T20:06:47.638Z,51.00
2023-03-23T20:09:19.014Z,50.99
2023-03-23T20:11:50.429Z,51.07
2023-03-23T20:14:25.868Z,51.26
2023-03-23T20:17:00.410Z,51.38
2023-03-23T20:19:29.431Z,51.70
2023-03-23T20:22:00.126Z,51.60
2023-03-23T20:24:31.785Z,51.78
2023-03-23T20:27:05.313Z,51.87
2023-03-23T20:29:35.063Z,52.06
2023-03-23T20:32:02.568Z,52.06
2023-03-23T20:34:30.748Z,52.16
2023-03-23T20:37:02.258Z,52.14
2023-03-23T20:39:37.259Z,52.24
2023-03-23T20:42:07.384Z,52.09
2023-03-23T20:44:39.184Z,52.24
2023-03-23T20:47:09.154Z,52.38
2023-03-23T20:49:38.712Z,52.17
2023-03-23T20:52:19.086Z,52.30
2023-03-23T20:54:50.172Z,52.27
2023-03-23T20:57:20.221Z,52.29
2023-03-23T20:59:55.238Z,52.26
2023-03-23T21:02:25.157Z,52.41
2023-03-23T21:05:03.630Z,52.39
2023-03-23T21:07:33.137Z,52.56
2023-03-23T21:10:03.222Z,52.69
2023-03-23T21:12:35.489Z,52.75
2023-03-23T21:15:04.428Z,53.00
2023-03-23T21:17:32.963Z,53.04
2023-03-23T21:20:10.879Z,53.27
2023-03-23T21:22:42.101Z,53.29
2023-03-23T21:25:09.669Z,53.44
2023-03-23T21:27:41.310Z,53.56
2023-03-23T21:30:10.565Z,53.36
2023-03-23T21:32:37.954Z,53.58
2023-03-23T21:35:08.426Z,53.51
2023-03-23T21:37:36.746Z,53.58
2023-03-23T21:40:13.710Z,53.56
2023-03-23T21:42:45.417Z,53.75
2023-03-23T21:45:18.029Z,53.87
2023-03-23T21:47:48.860Z,53.74
2023-03-23T21:50:21.578Z,54.00
2023-03-23T21:52:51.241Z,54.01
2023-03-23T21:55:29.142Z,54.17
2023-03-23T21:57:59.256Z,54.14
2023-03-23T22:00:33.465Z,54.20
2023-03-23T22:03:03.698Z,54.41
2023-03-23T22:05:31.598Z,54.71
2023-03-23T22:08:06.443Z,54.62
2023-03-23T22:10:33.980Z,54.60
2023-03-23T22:13:01.945Z,54.47
2023-03-23T22:15:30.640Z,54.63
2023-03-23T22:18:00.286Z,54.52
2023-03-23T22:20:30.272Z,54.66
2023-03-23T22:22:59.908Z,54.66
2023-03-23T22:25:28.265Z,54.69
2023-03-23T22:27:59.088Z,54.55
2023-03-23T22:30:29.237Z,54.49
2023-03-23T22:32:59.288Z,54.49
2023-03-23T22:35:27.871Z,54.75
2023-03-23T22:37:55.673Z,54.66
2023-03-23T22:40:25.772Z,54.73
2023-03-23T22:42:56.355Z,54.73
2023-03-23T22:45:26.018Z,54.68
2023-03-23T22:47:53.711Z,54.73
2023-03-23T22:50:25.577Z,54.79
2023-03-23T22:52:53.855Z,54.65
2023-03-23T22:55:27.713Z,54.75
2023-03-23T22:57:57.151Z,54.67
2023-03-23T23:00:25.766Z,54.74
2023-03-23T23:02:53.379Z,54.74
2023-03-23T23:05:20.729Z,54.83
2023-03-23T23:07:51.784Z,54.87
2023-03-23T23:10:21.532Z,55.01
2023-03-23T23:12:49.114Z,54.89
2023-03-23T23:15:23.837Z,55.05
2023-03-23T23:17:56.120Z,54.94
2023-03-23T23:20:24.056Z,55.00
2023-03-23T23:26:34.576Z,55.56
2023-03-23T23:29:03.551Z,54.99
2023-03-23T23:31:36.093Z,55.05
2023-03-23T23:34:06.564Z,55.19
2023-03-23T23:36:37.907Z,55.06
2023-03-23T23:39:06.144Z,55.37
2023-03-23T23:41:39.066Z,55.45
2023-03-23T23:44:07.011Z,55.67
2023-03-23T23:46:37.408Z,55.80
2023-03-23T23:49:06.566Z,55.81
2023-03-23T23:51:38.276Z,55.96
2023-03-23T23:54:22.145Z,55.91
2023-03-23T23:57:01.547Z,56.03
2023-03-23T23:59:38.909Z,56.13
